Time;durP1;ratioP1;P1;durP2;ratioP2;P2;SDS_P1;SDS_P2;PMS_P1;PMS_P2;Temp;Humidity;BMP_temperature;BMP_pressure;BME280_temperature;BME280_humidity;BME280_pressure;Samples;Min_cycle;Max_cycle;Signal;HPM_P1;HPM_P2
2022/06/04 00:00:00;;;;;;;370.27;250.90;;;;;;;24.04;69.57;99934.66;346217;28;1486;-83
2022/06/04 00:00:13;;;;;;;372.97;254.63;;;;;;;24.01;69.51;99926.09;342392;28;1183;-83
2022/06/04 00:00:24;;;;;;;372.88;251.27;;;;;;;24.04;69.35;99929.31;340611;28;1470;-83
2022/06/04 00:00:36;;;;;;;372.52;248.57;;;;;;;24.04;69.39;99934.66;342559;28;1397;-83
2022/06/04 00:00:48;;;;;;;372.58;247.52;;;;;;;24.05;69.42;99930.16;341485;28;1670;-83
2022/06/04 00:00:58;;;;;;;370.45;244.57;;;;;;;24.03;69.18;99930.31;342687;28;1474;-83
2022/06/04 00:01:09;;;;;;;371.80;246.80;;;;;;;24.03;69.38;99927.63;344274;28;877;-83
2022/06/04 00:01:19;;;;;;;370.25;247.60;;;;;;;24.06;69.64;99938.03;343100;28;1381;-83
2022/06/04 00:01:30;;;;;;;372.43;250.07;;;;;;;24.04;69.10;99926.66;343321;28;1409;-83
2022/06/04 00:01:41;;;;;;;371.83;248.82;;;;;;;24.02;69.48;99920.59;341846;29;807;-83
2022/06/04 00:01:52;;;;;;;373.38;250.75;;;;;;;24.07;69.51;99929.03;344529;28;1453;-83
2022/06/04 00:02:03;;;;;;;373.95;248.63;;;;;;;24.05;69.08;99925.66;343196;28;1542;-83
2022/06/04 00:02:13;;;;;;;373.73;249.43;;;;;;;24.03;69.32;99930.31;341142;28;1377;-83
2022/06/04 00:02:24;;;;;;;372.00;248.20;;;;;;;24.05;69.35;99931.00;343848;28;1546;-83
2022/06/04 00:02:38;;;;;;;369.75;250.00;;;;;;;24.01;69.27;99918.91;343750;28;1238;-83
2022/06/04 00:02:49;;;;;;;365.38;248.40;;;;;;;24.00;69.80;99916.38;344965;28;1955;-83
2022/06/04 00:02:59;;;;;;;365.47;248.50;;;;;;;24.02;69.82;99920.59;341060;28;1258;-83
2022/06/04 00:03:10;;;;;;;369.75;250.65;;;;;;;24.01;69.60;99918.91;345630;28;1262;-83
2022/06/04 00:03:21;;;;;;;371.93;248.63;;;;;;;23.99;69.34;99915.53;343464;28;874;-83
2022/06/04 00:03:31;;;;;;;377.90;248.23;;;;;;;24.01;69.65;99913.56;341310;28;1200;-83
2022/06/04 00:03:42;;;;;;;378.30;249.57;;;;;;;24.01;69.66;99918.91;341621;28;1227;-83
2022/06/04 00:03:53;;;;;;;374.17;245.80;;;;;;;24.00;69.66;99917.22;343072;28;1437;-83
2022/06/04 00:04:03;;;;;;;372.05;248.32;;;;;;;24.00;69.41;99922.56;344628;28;1463;-83
2022/06/04 00:04:14;;;;;;;371.95;249.00;;;;;;;24.00;69.26;99911.88;345419;28;1317;-83
2022/06/04 00:04:25;;;;;;;370.60;250.05;;;;;;;24.00;69.54;99905.66;344439;28;1467;-83
2022/06/04 00:04:35;;;;;;;368.53;249.00;;;;;;;23.98;69.52;99910.31;345217;28;1431;-83
2022/06/04 00:04:46;;;;;;;370.95;251.18;;;;;;;23.99;69.44;99910.19;342582;28;1582;-82
2022/06/04 00:04:56;;;;;;;373.47;252.10;;;;;;;23.98;69.46;99905.81;342338;28;1327;-82
2022/06/04 00:05:08;;;;;;;375.77;251.03;;;;;;;24.01;69.63;99912.72;339558;28;3411;-82
2022/06/04 00:05:23;;;;;;;373.23;251.68;;;;;;;23.97;69.44;99912.16;344616;28;1845;-82
2022/06/04 00:05:36;;;;;;;369.23;253.77;;;;;;;23.99;69.66;99912.00;341772;28;1799;-82
2022/06/04 00:05:49;;;;;;;368.83;251.98;;;;;;;23.99;69.53;99906.66;341160;29;1581;-82
2022/06/04 00:05:59;;;;;;;369.77;250.63;;;;;;;23.97;69.71;99916.66;344127;28;1350;-82
2022/06/04 00:06:09;;;;;;;369.65;247.38;;;;;;;23.96;69.34;99909.63;344299;28;1126;-82
2022/06/04 00:06:20;;;;;;;371.67;248.70;;;;;;;23.98;69.37;99913.84;340556;28;1427;-82
2022/06/04 00:06:30;;;;;;;374.00;249.03;;;;;;;24.01;69.51;99916.22;343056;28;1467;-82
2022/06/04 00:06:42;;;;;;;374.02;249.90;;;;;;;23.98;69.64;99903.13;346026;28;1338;-82
2022/06/04 00:06:52;;;;;;;367.05;245.95;;;;;;;24.03;69.51;99908.06;343212;28;1354;-82
2022/06/04 00:07:03;;;;;;;365.67;243.77;;;;;;;24.03;69.54;99916.94;344931;28;1330;-82
2022/06/04 00:07:14;;;;;;;370.20;248.30;;;;;;;24.02;69.12;99909.06;343383;28;1304;-82
2022/06/04 00:07:24;;;;;;;375.03;253.97;;;;;;;24.02;69.67;99911.72;341326;29;1438;-82
2022/06/04 00:07:34;;;;;;;375.00;254.48;;;;;;;23.98;69.28;99907.63;341857;28;1528;-82
2022/06/04 00:07:45;;;;;;;373.17;254.10;;;;;;;24.00;69.28;99906.50;341174;29;1257;-82
2022/06/04 00:07:57;;;;;;;374.38;251.05;;;;;;;23.99;69.56;99910.19;343783;28;1227;-82
2022/06/04 00:08:07;;;;;;;375.67;251.55;;;;;;;23.99;69.75;99909.31;342374;28;1594;-82
2022/06/04 00:08:18;;;;;;;373.63;248.93;;;;;;;23.97;69.53;99906.78;342199;28;1661;-82
2022/06/04 00:08:30;;;;;;;370.65;245.75;;;;;;;23.97;69.43;99917.50;341316;28;1249;-82
2022/06/04 00:08:41;;;;;;;366.10;244.27;;;;;;;23.92;69.94;99898.34;342879;28;1339;-82
2022/06/04 00:08:51;;;;;;;364.87;244.77;;;;;;;23.96;69.56;99905.09;346032;28;1199;-83
2022/06/04 00:09:04;;;;;;;367.75;248.05;;;;;;;23.97;69.57;99914.81;342973;28;1547;-83
2022/06/04 00:09:15;;;;;;;368.63;243.10;;;;;;;23.97;69.71;99912.16;340614;29;1352;-83
2022/06/04 00:09:26;;;;;;;369.58;241.73;;;;;;;23.96;69.79;99910.44;340442;29;881;-83
2022/06/04 00:09:36;;;;;;;366.90;239.48;;;;;;;23.99;69.68;99918.19;342375;28;1524;-83
2022/06/04 00:15:35;;;;;;;363.10;249.30;;;;;;;23.94;70.55;99906.22;342230;28;1272;-82
2022/06/04 00:15:46;;;;;;;362.10;246.98;;;;;;;23.92;70.40;99906.38;342533;28;1385;-82
2022/06/04 00:15:57;;;;;;;361.52;250.57;;;;;;;23.91;70.24;99912.69;345141;28;1565;-82
2022/06/04 00:16:07;;;;;;;365.23;250.02;;;;;;;23.90;70.65;99905.66;340464;29;1358;-82
2022/06/04 00:16:19;;;;;;;369.77;253.23;;;;;;;23.87;70.66;99898.78;342749;28;1471;-82
2022/06/04 00:16:30;;;;;;;370.77;249.77;;;;;;;23.89;70.61;99903.97;341540;29;908;-82
2022/06/04 00:16:40;;;;;;;372.13;253.70;;;;;;;23.87;70.77;99911.28;340219;29;1075;-82
2022/06/04 00:16:50;;;;;;;375.10;255.55;;;;;;;23.85;70.80;99903.41;341711;28;1336;-82
2022/06/04 00:17:01;;;;;;;376.77;257.97;;;;;;;23.82;70.95;99902.88;341915;28;1303;-82
2022/06/04 00:17:11;;;;;;;378.45;256.48;;;;;;;23.85;70.51;99899.91;343050;28;1400;-82
2022/06/04 00:17:22;;;;;;;378.80;258.43;;;;;;;23.84;70.61;99896.38;342271;28;1415;-82
2022/06/04 00:17:32;;;;;;;379.08;256.25;;;;;;;23.86;70.51;99899.75;343401;28;1350;-82
2022/06/04 00:17:43;;;;;;;378.20;256.10;;;;;;;23.87;71.11;99900.59;345866;28;1287;-82
2022/06/04 00:17:53;;;;;;;377.57;251.23;;;;;;;23.81;70.69;99896.69;344834;28;1499;-82
2022/06/04 00:18:03;;;;;;;375.77;250.40;;;;;;;23.86;70.85;99904.25;344404;28;1206;-82
2022/06/04 00:18:14;;;;;;;373.17;248.80;;;;;;;23.86;70.71;99894.41;345475;28;951;-82
2022/06/04 00:18:25;;;;;;;372.05;252.73;;;;;;;23.82;70.76;99895.69;342332;28;1542;-82
2022/06/04 00:18:37;;;;;;;371.80;252.35;;;;;;;23.85;71.00;99892.72;342088;28;1352;-82
2022/06/04 00:18:47;;;;;;;368.63;248.38;;;;;;;23.85;71.10;99907.91;343703;28;1347;-82
2022/06/04 00:18:57;;;;;;;365.47;246.17;;;;;;;23.83;71.11;99900.03;342610;28;1320;-82
2022/06/04 00:19:08;;;;;;;364.80;245.32;;;;;;;23.81;70.68;99898.50;341323;28;1269;-82
2022/06/04 00:19:19;;;;;;;370.50;250.40;;;;;;;23.82;71.26;99892.19;344289;28;1325;-82
2022/06/04 00:19:30;;;;;;;372.83;251.23;;;;;;;23.82;71.13;99892.19;345744;28;1402;-82
2022/06/04 00:19:41;;;;;;;372.90;252.23;;;;;;;23.82;70.80;99892.19;343535;28;1540;-82
2022/06/04 00:19:51;;;;;;;369.83;248.93;;;;;;;23.86;70.90;99898.91;343324;28;1559;-82
2022/06/04 00:20:02;;;;;;;370.93;248.13;;;;;;;23.82;70.93;99892.19;344416;28;1196;-82
2022/06/04 00:20:12;;;;;;;372.40;249.60;;;;;;;23.82;71.04;99897.53;341847;28;1534;-82
2022/06/04 00:20:23;;;;;;;372.40;249.82;;;;;;;23.78;71.08;99888.09;344657;28;1285;-82
2022/06/04 00:20:33;;;;;;;374.00;252.80;;;;;;;23.83;71.04;99891.16;343156;28;1487;-82
2022/06/04 00:20:44;;;;;;;376.65;254.23;;;;;;;23.82;70.83;99893.03;344117;28;1383;-82
2022/06/04 00:20:54;;;;;;;380.37;255.97;;;;;;;23.83;71.09;99893.84;347443;28;1361;-82
2022/06/04 00:21:05;;;;;;;377.20;251.35;;;;;;;23.80;71.25;99886.97;343615;28;1570;-82
2022/06/04 00:21:16;;;;;;;373.00;246.63;;;;;;;23.82;71.22;99892.19;343788;28;1375;-82
2022/06/04 00:21:26;;;;;;;370.40;244.10;;;;;;;23.80;71.33;99884.31;342424;28;1467;-82
2022/06/04 00:21:37;;;;;;;370.58;246.27;;;;;;;23.79;71.08;99887.97;342714;28;1309;-82
2022/06/04 00:21:48;;;;;;;369.30;248.37;;;;;;;23.80;71.44;99888.81;342935;28;822;-82
2022/06/04 00:22:00;;;;;;;367.13;245.38;;;;;;;23.81;71.06;99894.00;340062;28;1524;-82
2022/06/04 00:22:10;;;;;;;367.50;247.63;;;;;;;23.82;71.24;99887.69;339442;29;1528;-82
2022/06/04 00:22:21;;;;;;;366.48;245.02;;;;;;;23.81;71.08;99890.50;343433;28;1192;-82
2022/06/04 00:22:31;;;;;;;366.33;243.20;;;;;;;23.79;71.16;99882.63;341634;29;775;-82
2022/06/04 00:22:41;;;;;;;369.03;241.47;;;;;;;23.78;71.25;99886.28;341327;29;1511;-82
2022/06/04 00:23:02;;;;;;;371.47;244.13;;;;;;;23.79;71.22;99887.97;342963;28;1883;-82
2022/06/04 00:23:12;;;;;;;373.52;249.40;;;;;;;23.83;71.48;99899.19;345556;28;1309;-82
2022/06/04 00:23:23;;;;;;;374.17;251.20;;;;;;;23.80;71.08;99883.47;344096;28;3615;-82
2022/06/04 00:23:33;;;;;;;376.90;253.87;;;;;;;23.81;71.13;99893.16;343452;28;3339;-82
2022/06/04 00:23:44;;;;;;;375.92;257.25;;;;;;;23.76;71.44;99888.25;341117;28;1306;-82
2022/06/04 00:23:54;;;;;;;375.93;257.13;;;;;;;23.79;71.55;99893.31;340327;28;1824;-82
2022/06/04 00:24:06;;;;;;;376.23;256.75;;;;;;;23.80;71.52;99900.34;342435;28;1475;-82
2022/06/04 00:24:16;;;;;;;377.88;255.65;;;;;;;23.77;71.38;99894.44;341317;29;1406;-82
2022/06/04 00:24:27;;;;;;;375.77;254.30;;;;;;;23.77;71.43;99894.44;341188;29;1543;-82
2022/06/04 00:24:37;;;;;;;371.48;252.20;;;;;;;23.77;71.65;99894.44;339010;29;1366;-82
2022/06/04 00:24:48;;;;;;;373.63;255.23;;;;;;;23.75;71.13;99891.91;343105;28;1377;-82
2022/06/04 00:24:58;;;;;;;375.98;256.17;;;;;;;23.74;71.62;99889.38;343190;28;857;-82
2022/06/04 00:25:09;;;;;;;379.00;256.90;;;;;;;23.78;71.52;99893.44;340149;29;1436;-82
2022/06/04 00:25:20;;;;;;;377.58;253.70;;;;;;;23.77;71.19;99895.28;342916;28;1554;-82
2022/06/04 00:25:30;;;;;;;377.63;254.52;;;;;;;23.75;71.59;99891.06;344861;28;1441;-82
2022/06/04 00:25:42;;;;;;;377.40;254.33;;;;;;;23.76;71.42;99895.41;342346;28;1494;-82
2022/06/04 00:25:55;;;;;;;378.40;257.20;;;;;;;23.76;71.68;99893.59;341563;28;1365;-82
2022/06/04 00:26:09;;;;;;;377.80;256.33;;;;;;;23.70;71.50;99887.94;342981;28;1471;-82
2022/06/04 00:26:20;;;;;;;376.67;252.48;;;;;;;23.73;71.85;99898.38;342321;28;1386;-82
2022/06/04 00:26:30;;;;;;;370.70;248.38;;;;;;;23.74;71.72;99900.91;345156;28;1110;-82
2022/06/04 00:26:41;;;;;;;369.37;248.57;;;;;;;23.75;71.47;99896.41;343619;28;1176;-82
2022/06/04 00:26:52;;;;;;;370.58;251.55;;;;;;;23.74;71.89;99894.72;339834;29;1264;-82
2022/06/04 00:27:03;;;;;;;371.50;253.20;;;;;;;23.70;71.54;99896.81;341270;29;1372;-82
2022/06/04 00:27:19;;;;;;;368.60;250.75;;;;;;;23.71;71.70;99897.66;341437;29;1233;-82
2022/06/04 00:27:29;;;;;;;364.02;246.10;;;;;;;23.69;72.20;99891.59;340565;29;1288;-82
2022/06/04 00:27:40;;;;;;;364.10;247.90;;;;;;;23.68;71.64;99897.94;343361;28;1051;-82
2022/06/04 00:27:51;;;;;;;367.45;246.10;;;;;;;23.69;71.82;99892.44;343464;28;1235;-82
2022/06/04 00:28:03;;;;;;;369.27;249.32;;;;;;;23.68;71.61;99889.91;342920;28;1295;-82
2022/06/04 00:28:14;;;;;;;369.88;251.40;;;;;;;23.69;71.69;99903.16;343104;28;1532;-82
2022/06/04 00:28:25;;;;;;;370.25;253.02;;;;;;;23.69;72.01;99892.44;341863;29;1406;-82
2022/06/04 00:28:37;;;;;;;370.98;253.57;;;;;;;23.66;72.09;99892.72;341611;29;1737;-82
2022/06/04 00:28:47;;;;;;;373.30;251.40;;;;;;;23.69;71.64;99894.28;343118;28;1088;-82
2022/06/04 00:28:58;;;;;;;374.42;251.60;;;;;;;23.66;71.73;99891.88;342921;28;1508;-82
2022/06/04 00:29:09;;;;;;;375.80;251.60;;;;;;;23.65;72.16;99890.19;341064;29;1016;-82
2022/06/04 00:29:19;;;;;;;373.92;252.25;;;;;;;23.68;71.80;99892.59;343681;28;1487;-82
2022/06/04 00:29:31;;;;;;;370.98;250.38;;;;;;;23.68;72.01;99889.91;342945;28;821;-82
2022/06/04 00:29:41;;;;;;;371.90;249.73;;;;;;;23.66;71.94;99887.38;339748;29;1423;-82
2022/06/04 00:29:52;;;;;;;370.88;246.60;;;;;;;23.66;72.09;99887.38;341536;28;1284;-82
2022/06/04 00:30:03;;;;;;;372.57;247.50;;;;;;;23.67;71.93;99893.56;345064;28;1268;-82
2022/06/04 00:30:13;;;;;;;371.45;247.20;;;;;;;23.63;72.00;99884.16;345664;28;1375;-82
2022/06/04 00:30:24;;;;;;;373.77;249.25;;;;;;;23.64;72.18;99889.34;343563;28;1495;-82
2022/06/04 00:30:34;;;;;;;375.67;250.30;;;;;;;23.62;71.96;99891.31;343222;28;1210;-82
2022/06/04 00:30:45;;;;;;;375.63;253.40;;;;;;;23.60;71.83;99887.09;344596;28;1536;-82
2022/06/04 00:30:56;;;;;;;376.83;254.70;;;;;;;23.61;72.04;99894.13;342367;28;1283;-82
2022/06/04 00:31:06;;;;;;;373.77;251.20;;;;;;;23.62;72.00;99890.47;340537;29;1299;-82
2022/06/04 00:31:17;;;;;;;375.00;248.83;;;;;;;23.58;71.83;99883.72;341622;28;1273;-82
2022/06/04 00:31:28;;;;;;;377.60;251.52;;;;;;;23.59;72.14;99890.75;342908;28;1550;-82
2022/06/04 00:31:38;;;;;;;379.40;254.47;;;;;;;23.55;72.31;99891.03;341868;28;1523;-82
2022/06/04 00:31:50;;;;;;;378.88;253.02;;;;;;;23.57;72.17;99892.72;342404;28;789;-82
2022/06/04 00:32:00;;;;;;;379.50;252.52;;;;;;;23.57;72.31;99888.22;342332;28;1440;-82
2022/06/04 00:32:11;;;;;;;380.73;253.57;;;;;;;23.57;72.07;99892.72;340029;28;1444;-82
2022/06/04 00:32:21;;;;;;;375.00;249.00;;;;;;;23.57;72.22;99892.72;342937;28;1527;-82
2022/06/04 00:32:34;;;;;;;372.43;244.67;;;;;;;23.54;72.44;99889.34;342652;28;3866;-82
2022/06/04 00:32:44;;;;;;;370.00;244.15;;;;;;;23.58;72.57;99894.41;341059;28;3217;-82
2022/06/04 00:32:55;;;;;;;369.50;245.93;;;;;;;23.54;72.22;99886.66;345372;28;1530;-82
2022/06/04 00:33:05;;;;;;;374.42;249.90;;;;;;;23.54;72.30;99875.97;340280;29;1436;-82
2022/06/04 00:33:16;;;;;;;377.47;252.43;;;;;;;23.58;72.35;99889.91;342996;28;3303;-82
2022/06/04 00:33:26;;;;;;;373.93;252.03;;;;;;;23.54;72.22;99884.00;345021;28;1352;-82
2022/06/04 00:33:37;;;;;;;372.27;251.77;;;;;;;23.55;72.00;99880.34;341741;29;1385;-82
2022/06/04 00:33:47;;;;;;;371.45;252.45;;;;;;;23.58;72.50;99883.72;341987;28;1319;-82
2022/06/04 00:33:57;;;;;;;376.30;258.40;;;;;;;23.59;71.99;99885.41;341760;29;1456;-82
2022/06/04 00:34:09;;;;;;;377.77;258.20;;;;;;;23.55;72.48;99880.34;338969;29;956;-82
2022/06/04 00:34:19;;;;;;;377.77;254.13;;;;;;;23.59;72.09;99891.59;343173;28;1371;-82
2022/06/04 00:34:30;;;;;;;375.00;250.30;;;;;;;23.60;72.38;99884.41;341115;28;1538;-83
2022/06/04 00:34:40;;;;;;;371.20;248.68;;;;;;;23.57;72.35;99888.22;340518;29;1573;-82
2022/06/04 00:34:51;;;;;;;372.80;251.40;;;;;;;23.60;72.23;99887.09;342958;28;1224;-81
2022/06/04 00:35:03;;;;;;;372.00;248.85;;;;;;;23.52;72.18;99880.56;344274;28;1566;-81
2022/06/04 00:35:13;;;;;;;372.17;246.02;;;;;;;23.57;71.80;99892.72;342732;28;1424;-81
2022/06/04 00:35:24;;;;;;;371.77;244.03;;;;;;;23.56;72.38;99886.53;343367;28;1331;-81
2022/06/04 00:35:35;;;;;;;375.02;248.57;;;;;;;23.51;72.33;99881.56;346856;28;852;-81
2022/06/04 00:35:49;;;;;;;377.15;252.70;;;;;;;23.55;72.29;99890.19;346660;28;1467;-81
2022/06/04 00:35:59;;;;;;;378.92;253.38;;;;;;;23.51;72.57;99881.56;341824;28;1495;-81
2022/06/04 00:36:10;;;;;;;377.25;249.18;;;;;;;23.51;72.41;99884.22;343597;28;1261;-81
2022/06/04 00:36:20;;;;;;;375.30;247.23;;;;;;;23.52;72.42;99885.91;342938;28;1193;-81
2022/06/04 00:36:31;;;;;;;370.80;241.07;;;;;;;23.49;72.41;99880.84;340399;29;1040;-81
2022/06/04 00:36:42;;;;;;;365.42;236.95;;;;;;;23.44;72.84;99880.41;343561;28;1455;-81
2022/06/04 00:36:52;;;;;;;365.63;240.00;;;;;;;23.45;72.68;99884.78;344421;28;1546;-81
2022/06/04 00:37:03;;;;;;;363.15;238.02;;;;;;;23.44;72.57;99883.09;342882;28;1204;-81
2022/06/04 00:37:13;;;;;;;366.27;240.53;;;;;;;23.45;72.71;99875.91;343844;28;1479;-81
2022/06/04 00:37:24;;;;;;;369.23;242.23;;;;;;;23.42;72.63;99873.53;342203;28;1507;-81
2022/06/04 00:37:35;;;;;;;371.90;247.67;;;;;;;23.43;72.67;99884.06;342828;28;1250;-81
2022/06/04 00:37:46;;;;;;;372.17;248.40;;;;;;;23.40;72.87;99891.53;341620;28;1484;-81
2022/06/04 00:37:56;;;;;;;367.25;246.05;;;;;;;23.39;73.46;99880.03;343055;28;1420;-81
2022/06/04 00:38:07;;;;;;;370.17;246.05;;;;;;;23.42;73.00;99882.38;344198;28;1467;-81
2022/06/04 00:38:19;;;;;;;372.70;249.40;;;;;;;23.40;72.58;99880.84;345110;28;1200;-81
2022/06/04 00:38:30;;;;;;;374.63;247.60;;;;;;;23.34;73.09;99874.25;342777;28;1393;-81
2022/06/04 00:38:41;;;;;;;369.30;243.15;;;;;;;23.32;72.92;99878.88;344174;28;1341;-81
2022/06/04 00:38:52;;;;;;;373.20;248.70;;;;;;;23.34;73.34;99881.41;341459;28;1196;-81
2022/06/04 00:39:02;;;;;;;372.05;249.55;;;;;;;23.33;72.86;99872.56;341748;28;1352;-81
2022/06/04 00:39:13;;;;;;;371.35;251.50;;;;;;;23.35;73.30;99883.94;343237;28;1301;-81
2022/06/04 00:39:23;;;;;;;374.23;249.07;;;;;;;23.34;73.09;99870.72;339107;29;1381;-82
2022/06/04 00:39:33;;;;;;;376.73;248.60;;;;;;;23.38;73.00;99878.34;342879;28;1435;-82
2022/06/04 00:39:45;;;;;;;381.83;250.10;;;;;;;23.35;73.17;99873.25;344383;28;1544;-82
2022/06/04 00:39:58;;;;;;;377.52;248.15;;;;;;;23.37;73.02;99878.47;342012;28;1591;-82
2022/06/04 00:40:09;;;;;;;372.45;247.15;;;;;;;23.35;73.23;99883.94;344479;28;1312;-82
2022/06/04 00:40:31;;;;;;;369.77;244.23;;;;;;;23.36;72.86;99879.44;342642;28;1391;-82
2022/06/04 00:40:51;;;;;;;367.17;245.57;;;;;;;23.38;73.27;99882.81;343464;28;1549;-82
2022/06/04 00:41:10;;;;;;;364.45;241.90;;;;;;;23.36;73.59;99874.09;343902;28;1616;-82
2022/06/04 00:41:51;;;;;;;365.05;241.05;;;;;;;23.37;73.20;99878.47;344194;28;1008;-82
2022/06/04 00:42:12;;;;;;;366.45;248.32;;;;;;;23.35;73.62;99883.94;341178;28;3247;-82
2022/06/04 00:42:23;;;;;;;363.38;241.50;;;;;;;23.35;73.32;99883.94;340155;28;3197;-82
2022/06/04 00:42:33;;;;;;;363.93;242.63;;;;;;;23.36;73.45;99877.63;343359;28;1206;-82
2022/06/04 00:42:44;;;;;;;367.30;247.37;;;;;;;23.37;73.23;99879.31;341261;28;1235;-82
2022/06/04 00:42:56;;;;;;;369.48;247.30;;;;;;;23.37;73.45;99876.63;339343;29;1901;-82
2022/06/04 00:43:06;;;;;;;372.27;245.57;;;;;;;23.39;73.47;99880.03;343189;28;1306;-82
2022/06/04 00:43:18;;;;;;;371.77;243.40;;;;;;;23.38;73.75;99885.50;343306;28;1649;-82
2022/06/04 00:43:28;;;;;;;372.90;247.27;;;;;;;23.37;73.56;99884.66;341104;28;1368;-81
2022/06/04 00:43:56;;;;;;;372.07;249.43;;;;;;;23.37;73.63;99884.66;344157;28;1438;-81
2022/06/04 00:44:09;;;;;;;363.50;234.77;;;;;;;23.37;73.58;99892.66;342987;28;878;-81
2022/06/04 00:44:20;;;;;;;364.95;237.52;;;;;;;23.36;73.41;99888.31;342893;28;1469;-83
2022/06/04 00:44:30;;;;;;;367.80;241.37;;;;;;;23.34;73.88;99892.94;344249;28;1455;-82
2022/06/04 00:45:18;;;;;;;368.10;246.40;;;;;;;23.35;74.22;99886.63;344446;28;1475;-82
2022/06/04 00:45:34;;;;;;;363.98;238.07;;;;;;;23.36;73.94;99890.13;345002;28;1459;-82
2022/06/04 00:46:21;;;;;;;368.50;240.27;;;;;;;23.36;73.70;99890.97;345737;28;1264;-82
2022/06/04 00:46:41;;;;;;;365.38;245.00;;;;;;;23.35;74.06;99883.94;345900;28;1458;-82
2022/06/04 00:47:27;;;;;;;364.02;242.73;;;;;;;23.31;73.90;99887.88;346962;28;1400;-81
2022/06/04 00:47:38;;;;;;;364.95;242.88;;;;;;;23.30;73.69;99886.19;343633;28;897;-81
2022/06/04 00:47:49;;;;;;;366.02;243.57;;;;;;;23.30;74.10;99890.69;343198;28;936;-81
2022/06/04 00:47:59;;;;;;;365.90;243.73;;;;;;;23.28;74.43;99882.81;342957;28;1374;-81
2022/06/04 00:48:10;;;;;;;365.77;241.67;;;;;;;23.31;74.01;99893.22;341463;28;1360;-81
2022/06/04 00:48:20;;;;;;;367.42;240.13;;;;;;;23.31;74.21;99890.53;341892;28;1178;-81
2022/06/04 00:48:32;;;;;;;369.50;238.70;;;;;;;23.33;74.13;99893.91;340820;29;1532;-81
2022/06/04 00:48:42;;;;;;;370.98;240.70;;;;;;;23.30;73.88;99891.53;342629;28;1535;-81
2022/06/04 00:48:53;;;;;;;374.38;243.10;;;;;;;23.27;73.86;99890.94;344024;28;1362;-81
2022/06/04 00:49:03;;;;;;;375.13;242.03;;;;;;;23.29;73.75;99889.84;340660;29;1258;-81
2022/06/04 00:49:15;;;;;;;376.73;242.13;;;;;;;23.28;73.94;99890.81;344240;28;1459;-81
2022/06/04 00:49:26;;;;;;;373.48;241.05;;;;;;;23.26;74.13;99883.91;341521;29;1496;-81
2022/06/04 00:49:36;;;;;;;375.15;240.95;;;;;;;23.28;73.96;99877.47;338948;28;1320;-81
2022/06/04 00:49:46;;;;;;;373.43;241.30;;;;;;;23.30;74.24;99888.84;342812;28;1460;-81
2022/06/04 00:49:57;;;;;;;373.50;243.90;;;;;;;23.29;74.03;99889.00;343435;28;1471;-81
2022/06/04 00:50:09;;;;;;;372.15;245.63;;;;;;;23.27;73.92;99882.94;341845;29;1260;-81
2022/06/04 00:50:20;;;;;;;369.17;242.40;;;;;;;23.27;74.00;99890.94;340918;29;1280;-81
2022/06/04 00:50:31;;;;;;;372.95;244.20;;;;;;;23.28;74.27;99888.16;343545;28;1424;-81
2022/06/04 00:50:42;;;;;;;372.40;243.15;;;;;;;23.30;73.99;99891.53;341748;28;1472;-82
2022/06/04 00:50:53;;;;;;;374.05;246.52;;;;;;;23.29;74.24;99884.50;340767;28;1677;-82
2022/06/04 00:51:03;;;;;;;373.92;247.93;;;;;;;23.29;74.09;99894.34;341631;28;3310;-82
2022/06/04 00:51:14;;;;;;;376.57;247.97;;;;;;;23.31;74.24;99893.22;342279;28;1710;-82
2022/06/04 00:51:24;;;;;;;379.38;249.18;;;;;;;23.34;73.95;99903.63;342449;28;1801;-82
2022/06/04 00:51:34;;;;;;;374.33;246.60;;;;;;;23.33;74.37;99901.94;342704;28;3300;-82
2022/06/04 00:51:48;;;;;;;373.73;244.38;;;;;;;23.34;74.20;99898.28;341158;28;1595;-82
2022/06/04 00:51:59;;;;;;;371.38;245.63;;;;;;;23.33;74.34;99891.25;341297;29;1353;-82
2022/06/04 00:52:12;;;;;;;371.30;243.60;;;;;;;23.27;74.32;99886.44;344300;28;1487;-82
2022/06/04 00:52:22;;;;;;;368.38;238.60;;;;;;;23.31;74.14;99893.22;344043;28;1295;-82
2022/06/04 00:52:33;;;;;;;369.90;241.47;;;;;;;23.29;74.40;99892.50;342740;28;1496;-82
2022/06/04 00:52:44;;;;;;;370.40;243.07;;;;;;;23.31;74.27;99895.88;343758;28;1324;-82
2022/06/04 00:52:54;;;;;;;371.02;244.85;;;;;;;23.25;74.47;99898.25;342526;28;1456;-82
2022/06/04 00:53:08;;;;;;;370.10;242.93;;;;;;;23.22;74.46;99884.19;341562;28;1028;-82
2022/06/04 00:53:18;;;;;;;368.90;242.05;;;;;;;23.25;75.50;99893.75;344337;28;1507;-82
2022/06/04 00:53:29;;;;;;;368.90;243.20;;;;;;;23.27;74.42;99897.13;343940;28;1499;-82
2022/06/04 00:53:41;;;;;;;369.60;244.60;;;;;;;23.22;74.23;99888.69;342217;28;1230;-82
2022/06/04 00:53:51;;;;;;;373.25;245.50;;;;;;;23.25;74.37;99896.44;341415;28;1307;-82
2022/06/04 00:54:02;;;;;;;374.73;244.43;;;;;;;23.25;74.52;99899.09;345668;28;1219;-82
2022/06/04 00:54:12;;;;;;;376.80;247.30;;;;;;;23.22;74.79;99894.88;343792;28;1450;-82
2022/06/04 00:54:23;;;;;;;377.52;252.82;;;;;;;23.19;74.99;99895.16;340388;29;1343;-82
2022/06/04 00:54:33;;;;;;;376.77;252.27;;;;;;;23.19;75.22;99889.81;341622;28;1307;-82
2022/06/04 00:54:44;;;;;;;375.95;251.30;;;;;;;23.20;74.84;99890.66;340534;29;1330;-82
2022/06/04 00:54:56;;;;;;;374.80;249.52;;;;;;;23.18;75.07;99898.78;341608;28;1464;-82
2022/06/04 00:55:07;;;;;;;370.65;245.88;;;;;;;23.21;75.19;99892.34;344126;28;865;-81
2022/06/04 00:55:18;;;;;;;369.60;240.70;;;;;;;23.16;74.91;99891.91;341467;28;1488;-81
2022/06/04 00:56:13;;;;;;;371.15;239.13;;;;;;;23.20;74.72;99896.84;343803;28;1188;-81
2022/06/04 00:56:48;;;;;;;365.42;240.93;;;;;;;23.21;75.04;99898.53;343810;28;854;-82
2022/06/04 00:57:18;;;;;;;366.80;242.80;;;;;;;23.22;74.88;99894.03;342684;28;1471;-81
2022/06/04 00:57:56;;;;;;;362.05;241.93;;;;;;;23.22;75.20;99897.53;342490;28;1633;-81
2022/06/04 00:58:10;;;;;;;361.90;236.43;;;;;;;23.21;75.02;99898.53;344090;28;1259;-82
2022/06/04 00:59:03;;;;;;;362.45;237.10;;;;;;;23.21;74.93;99892.34;342857;28;1335;-82
2022/06/04 00:59:32;;;;;;;363.85;242.35;;;;;;;23.15;75.25;99899.06;342948;28;889;-82
2022/06/04 01:00:01;;;;;;;363.20;240.25;;;;;;;23.11;75.42;99902.13;343002;28;1398;-82
2022/06/04 01:00:32;;;;;;;366.13;244.50;;;;;;;23.09;75.07;99899.59;344298;28;3460;-82
2022/06/04 01:00:53;;;;;;;367.48;241.73;;;;;;;23.07;75.30;99898.06;343375;28;1907;-82
2022/06/04 01:01:17;;;;;;;364.63;240.23;;;;;;;23.02;75.68;99895.78;340320;29;1426;-82
2022/06/04 01:01:29;;;;;;;367.95;245.55;;;;;;;23.00;75.59;99894.22;339873;29;1489;-82
2022/06/04 01:01:57;;;;;;;373.25;250.07;;;;;;;22.99;75.75;99888.03;341061;28;1444;-82
2022/06/04 01:02:26;;;;;;;365.05;241.52;;;;;;;23.03;75.55;99894.81;342493;28;1440;-82
2022/06/04 01:02:52;;;;;;;364.85;236.70;;;;;;;23.02;75.29;99895.78;341243;29;1193;-82
2022/06/04 01:03:23;;;;;;;366.13;234.52;;;;;;;23.06;75.23;99893.69;343016;28;1912;-82
2022/06/04 01:03:42;;;;;;;366.45;236.88;;;;;;;23.03;75.41;99889.47;345169;28;1758;-82
2022/06/04 01:04:08;;;;;;;364.58;238.82;;;;;;;23.04;75.34;99895.66;342475;28;1102;-82
2022/06/04 01:05:10;;;;;;;362.23;236.10;;;;;;;23.02;75.21;99897.59;342477;28;1606;-82
2022/06/04 01:05:36;;;;;;;364.15;235.73;;;;;;;23.00;75.16;99889.72;341186;29;1552;-81
2022/06/04 01:05:58;;;;;;;366.58;235.75;;;;;;;23.01;75.58;99888.75;339571;29;1563;-81
2022/06/04 01:06:48;;;;;;;368.15;240.32;;;;;;;23.04;75.32;99884.97;339575;29;1421;-81
2022/06/04 01:06:59;;;;;;;362.52;232.25;;;;;;;23.04;75.46;99884.97;345069;28;1554;-81